TimeCDT,TemperatureF,Dew PointF,Humidity,Sea Level PressureIn,VisibilityMPH,Wind Direction,Wind SpeedMPH,Gust SpeedMPH,PrecipitationIn,Events,Conditions,WindDirDegrees,DateUTC
12:55 AM,70.3,70.3,100,30.01,10.0,North,4.6,-,N/A,,Mostly Cloudy,360,2012-10-06 05:55:00
1:55 AM,70.2,70.2,100,30.00,10.0,North,4.6,-,N/A,,Mostly Cloudy,10,2012-10-06 06:55:00
2:55 AM,70.2,70.0,99,29.99,10.0,North,4.6,-,N/A,,Scattered Clouds,10,2012-10-06 07:55:00
3:55 AM,69.1,69.1,100,29.97,9.0,North,3.5,-,N/A,,Partly Cloudy,360,2012-10-06 08:55:00
4:55 AM,68.4,68.4,100,29.98,10.0,North,4.6,-,N/A,,Clear,360,2012-10-06 09:55:00
5:55 AM,68.2,68.2,100,29.99,8.0,North,5.8,-,N/A,,Clear,10,2012-10-06 10:55:00
6:27 AM,68.0,68.0,100,30.00,8.0,North,6.9,-,N/A,,Partly Cloudy,10,2012-10-06 11:27:00
6:41 AM,68.0,68.0,100,30.00,2.5,North,6.9,-,N/A,,Partly Cloudy,360,2012-10-06 11:41:00
6:43 AM,68.0,68.0,100,30.00,1.8,North,6.9,-,N/A,,Partly Cloudy,360,2012-10-06 11:43:00
6:44 AM,68.0,68.0,100,30.00,1.5,North,5.8,-,N/A,,Partly Cloudy,360,2012-10-06 11:44:00
6:47 AM,68.0,68.0,100,30.00,1.2,North,5.8,-,N/A,,Partly Cloudy,360,2012-10-06 11:47:00
6:55 AM,68.2,68.2,100,30.00,1.2,North,4.6,-,N/A,,Scattered Clouds,10,2012-10-06 11:55:00
6:56 AM,68.0,68.0,100,30.00,1.2,North,4.6,-,N/A,,Mostly Cloudy,10,2012-10-06 11:56:00
6:58 AM,68.0,68.0,100,30.00,1.0,North,4.6,-,N/A,,Mist,10,2012-10-06 11:58:00
7:00 AM,68.0,68.0,100,30.00,0.8,North,4.6,-,N/A,,Mist,360,2012-10-06 12:00:00
7:02 AM,68.0,68.0,100,30.00,0.5,North,4.6,-,N/A,Fog,Fog,360,2012-10-06 12:02:00
7:06 AM,68.0,68.0,100,30.00,0.2,North,5.8,-,N/A,Fog,Fog,360,2012-10-06 12:06:00
7:07 AM,68.0,68.0,100,30.00,0.2,North,5.8,-,N/A,Fog,Fog,360,2012-10-06 12:07:00
7:09 AM,68.0,68.0,100,30.00,0.2,North,5.8,-,N/A,Fog,Fog,360,2012-10-06 12:09:00
7:11 AM,68.0,68.0,100,30.00,0.2,North,5.8,-,N/A,Fog,Fog,360,2012-10-06 12:11:00
7:24 AM,68.0,68.0,100,30.00,0.2,North,5.8,-,N/A,Fog,Fog,350,2012-10-06 12:24:00
7:25 AM,68.0,68.0,100,30.00,0.2,North,5.8,-,N/A,Fog,Fog,350,2012-10-06 12:25:00
7:26 AM,68.0,68.0,100,30.00,0.5,North,5.8,-,N/A,Fog,Fog,350,2012-10-06 12:26:00
7:27 AM,68.0,68.0,100,30.00,0.5,North,5.8,-,N/A,Fog,Fog,350,2012-10-06 12:27:00
7:30 AM,68.0,68.0,100,30.00,0.8,North,5.8,-,N/A,,Mist,360,2012-10-06 12:30:00
7:32 AM,68.0,68.0,100,30.00,1.0,North,5.8,-,N/A,,Mist,360,2012-10-06 12:32:00
7:33 AM,68.0,68.0,100,30.00,1.2,North,6.9,-,N/A,,Clear,360,2012-10-06 12:33:00
7:34 AM,68.0,68.0,100,30.00,1.8,North,6.9,-,N/A,,Clear,360,2012-10-06 12:34:00
7:35 AM,68.0,68.0,100,30.00,2.0,North,5.8,-,N/A,,Clear,360,2012-10-06 12:35:00
7:36 AM,69.8,68.0,94,30.00,3.0,North,5.8,-,N/A,,Clear,360,2012-10-06 12:36:00
7:55 AM,70.2,70.2,100,30.00,10.0,North,6.9,-,N/A,,Clear,360,2012-10-06 12:55:00
8:52 AM,73.4,73.4,100,30.01,10.0,North,9.2,-,N/A,,Partly Cloudy,360,2012-10-06 13:52:00
8:55 AM,73.8,73.4,99,30.01,10.0,North,9.2,-,N/A,,Partly Cloudy,350,2012-10-06 13:55:00
9:55 AM,79.3,73.9,83,30.01,10.0,North,9.2,-,N/A,,Clear,350,2012-10-06 14:55:00
10:07 AM,80.6,73.4,79,30.01,10.0,NNE,5.8,-,N/A,,Light Drizzle,30,2012-10-06 15:07:00
10:16 AM,80.6,73.4,79,30.01,10.0,North,8.1,-,N/A,,Clear,10,2012-10-06 15:16:00
10:31 AM,82.4,73.4,74,30.01,10.0,North,8.1,-,N/A,Rain,Light Rain,10,2012-10-06 15:31:00
10:41 AM,82.4,73.4,74,30.01,10.0,NE,9.2,-,N/A,,Partly Cloudy,40,2012-10-06 15:41:00
10:54 AM,82.4,73.4,74,30.01,10.0,NNE,9.2,-,N/A,,Light Drizzle,30,2012-10-06 15:54:00
10:55 AM,83.3,72.5,70,30.01,10.0,NE,10.4,-,0.00,,Partly Cloudy,40,2012-10-06 15:55:00
11:00 AM,84.2,71.6,66,30.01,10.0,NE,10.4,-,N/A,Rain,Light Rain,40,2012-10-06 16:00:00
11:04 AM,84.2,71.6,66,30.01,10.0,NNE,9.2,-,N/A,,Partly Cloudy,30,2012-10-06 16:04:00
11:55 AM,84.0,71.6,66,30.00,10.0,North,10.4,-,0.00,,Scattered Clouds,360,2012-10-06 16:55:00
12:34 PM,86.0,68.0,55,29.98,10.0,Calm,Calm,-,N/A,,Light Drizzle,0,2012-10-06 17:34:00
12:55 PM,85.3,74.8,71,29.98,10.0,SSE,8.1,-,0.00,Rain,Light Rain,160,2012-10-06 17:55:00
1:03 PM,84.2,73.4,70,29.97,10.0,South,9.2,-,N/A,,Mostly Cloudy,190,2012-10-06 18:03:00
1:55 PM,84.4,72.9,68,29.94,10.0,South,6.9,-,0.00,,Clear,180,2012-10-06 18:55:00
2:55 PM,83.5,73.9,73,29.92,10.0,SW,10.4,-,N/A,,Clear,220,2012-10-06 19:55:00
3:55 PM,82.4,74.5,77,29.91,10.0,WSW,9.2,-,N/A,,Clear,240,2012-10-06 20:55:00
4:55 PM,81.7,73.4,76,29.91,10.0,SSW,8.1,-,N/A,,Clear,210,2012-10-06 21:55:00
5:55 PM,80.2,73.2,79,29.92,10.0,WSW,6.9,-,N/A,,Clear,250,2012-10-06 22:55:00
6:55 PM,78.3,73.2,84,29.94,10.0,West,5.8,-,N/A,,Clear,270,2012-10-06 23:55:00
7:55 PM,77.4,73.4,88,29.95,10.0,WNW,3.5,-,N/A,,Clear,300,2012-10-07 00:55:00
8:55 PM,76.3,72.0,86,29.96,10.0,WNW,5.8,-,N/A,,Clear,290,2012-10-07 01:55:00
9:55 PM,72.0,71.1,97,29.98,10.0,North,3.5,-,N/A,,Clear,350,2012-10-07 02:55:00
10:55 PM,70.0,69.4,98,29.99,10.0,North,5.8,-,N/A,,Clear,10,2012-10-07 03:55:00
11:55 PM,68.7,67.6,96,29.98,10.0,North,8.1,-,N/A,,Clear,360,2012-10-07 04:55:00